sensor_id;sensor_type;location;lat;lon;timestamp;P1;durP1;ratioP1;P2;durP2;ratioP2
70970;SDS011;58632;51.718;19.446;2022-08-03T00:01:08;9.03;;;6.78;;
70970;SDS011;58632;51.718;19.446;2022-08-03T00:03:35;10.63;;;6.53;;
70970;SDS011;58632;51.718;19.446;2022-08-03T00:06:03;11.15;;;6.87;;
70970;SDS011;58632;51.718;19.446;2022-08-03T00:08:30;9.88;;;6.92;;
70970;SDS011;58632;51.718;19.446;2022-08-03T00:10:58;14.23;;;7.42;;
70970;SDS011;58632;51.718;19.446;2022-08-03T00:13:25;9.98;;;6.58;;
70970;SDS011;58632;51.718;19.446;2022-08-03T00:15:53;10.68;;;6.75;;
70970;SDS011;58632;51.718;19.446;2022-08-03T00:18:20;9.55;;;6.70;;
70970;SDS011;58632;51.718;19.446;2022-08-03T00:20:48;9.90;;;6.85;;
70970;SDS011;58632;51.718;19.446;2022-08-03T00:23:15;10.23;;;7.05;;
70970;SDS011;58632;51.718;19.446;2022-08-03T00:25:43;10.85;;;7.35;;
70970;SDS011;58632;51.718;19.446;2022-08-03T00:28:10;12.68;;;7.30;;
70970;SDS011;58632;51.718;19.446;2022-08-03T00:30:37;11.15;;;7.12;;
70970;SDS011;58632;51.718;19.446;2022-08-03T00:33:05;10.85;;;7.42;;
70970;SDS011;58632;51.718;19.446;2022-08-03T00:35:32;13.43;;;8.18;;
70970;SDS011;58632;51.718;19.446;2022-08-03T00:37:59;12.90;;;7.28;;
70970;SDS011;58632;51.718;19.446;2022-08-03T00:40:27;13.53;;;7.60;;
70970;SDS011;58632;51.718;19.446;2022-08-03T00:42:56;12.40;;;7.67;;
70970;SDS011;58632;51.718;19.446;2022-08-03T00:45:27;11.08;;;7.37;;
70970;SDS011;58632;51.718;19.446;2022-08-03T00:47:58;13.22;;;7.53;;
70970;SDS011;58632;51.718;19.446;2022-08-03T00:50:27;12.53;;;7.37;;
70970;SDS011;58632;51.718;19.446;2022-08-03T00:53:00;11.12;;;7.33;;
70970;SDS011;58632;51.718;19.446;2022-08-03T00:55:30;11.88;;;7.40;;
70970;SDS011;58632;51.718;19.446;2022-08-03T00:57:58;14.07;;;7.00;;
70970;SDS011;58632;51.718;19.446;2022-08-03T01:00:29;11.95;;;6.90;;
70970;SDS011;58632;51.718;19.446;2022-08-03T01:02:56;8.98;;;7.22;;
70970;SDS011;58632;51.718;19.446;2022-08-03T01:05:24;11.25;;;6.53;;
70970;SDS011;58632;51.718;19.446;2022-08-03T01:08:02;13.95;;;7.10;;
70970;SDS011;58632;51.718;19.446;2022-08-03T01:10:41;8.83;;;6.97;;
70970;SDS011;58632;51.718;19.446;2022-08-03T01:16:26;8.73;;;6.67;;
70970;SDS011;58632;51.718;19.446;2022-08-03T01:31:47;9.80;;;7.55;;
70970;SDS011;58632;51.718;19.446;2022-08-03T01:34:20;9.70;;;6.67;;
70970;SDS011;58632;51.718;19.446;2022-08-03T01:36:52;11.43;;;7.65;;
70970;SDS011;58632;51.718;19.446;2022-08-03T01:39:23;10.15;;;6.87;;
70970;SDS011;58632;51.718;19.446;2022-08-03T01:41:54;11.55;;;7.17;;
70970;SDS011;58632;51.718;19.446;2022-08-03T01:44:27;10.65;;;6.97;;
70970;SDS011;58632;51.718;19.446;2022-08-03T01:46:57;11.95;;;7.10;;
70970;SDS011;58632;51.718;19.446;2022-08-03T01:49:29;10.20;;;6.83;;
70970;SDS011;58632;51.718;19.446;2022-08-03T01:52:06;10.28;;;7.05;;
70970;SDS011;58632;51.718;19.446;2022-08-03T01:54:36;10.63;;;6.90;;
70970;SDS011;58632;51.718;19.446;2022-08-03T01:57:10;9.35;;;6.65;;
70970;SDS011;58632;51.718;19.446;2022-08-03T01:59:40;11.10;;;7.00;;
70970;SDS011;58632;51.718;19.446;2022-08-03T02:02:11;9.78;;;6.72;;
70970;SDS011;58632;51.718;19.446;2022-08-03T02:04:44;10.75;;;6.22;;
70970;SDS011;58632;51.718;19.446;2022-08-03T02:07:14;9.48;;;6.75;;
70970;SDS011;58632;51.718;19.446;2022-08-03T02:09:43;9.05;;;6.70;;
70970;SDS011;58632;51.718;19.446;2022-08-03T02:12:14;8.85;;;7.08;;
70970;SDS011;58632;51.718;19.446;2022-08-03T02:14:43;10.68;;;6.85;;
70970;SDS011;58632;51.718;19.446;2022-08-03T02:17:14;10.48;;;6.42;;
70970;SDS011;58632;51.718;19.446;2022-08-03T02:19:42;10.35;;;6.58;;
70970;SDS011;58632;51.718;19.446;2022-08-03T02:22:11;8.45;;;6.33;;
70970;SDS011;58632;51.718;19.446;2022-08-03T02:24:40;8.85;;;7.12;;
70970;SDS011;58632;51.718;19.446;2022-08-03T02:27:14;12.18;;;7.17;;
70970;SDS011;58632;51.718;19.446;2022-08-03T02:29:52;8.73;;;6.72;;
70970;SDS011;58632;51.718;19.446;2022-08-03T02:32:24;12.95;;;6.75;;
70970;SDS011;58632;51.718;19.446;2022-08-03T02:34:58;8.93;;;6.60;;
70970;SDS011;58632;51.718;19.446;2022-08-03T02:37:33;11.70;;;7.10;;
70970;SDS011;58632;51.718;19.446;2022-08-03T02:40:05;9.30;;;7.05;;
70970;SDS011;58632;51.718;19.446;2022-08-03T02:42:36;9.78;;;6.90;;
70970;SDS011;58632;51.718;19.446;2022-08-03T02:45:08;10.65;;;7.22;;
70970;SDS011;58632;51.718;19.446;2022-08-03T02:47:41;8.60;;;6.67;;
70970;SDS011;58632;51.718;19.446;2022-08-03T02:50:11;10.13;;;7.22;;
70970;SDS011;58632;51.718;19.446;2022-08-03T02:52:42;12.00;;;7.17;;
70970;SDS011;58632;51.718;19.446;2022-08-03T02:55:14;9.08;;;6.80;;
70970;SDS011;58632;51.718;19.446;2022-08-03T02:57:44;10.08;;;7.42;;
70970;SDS011;58632;51.718;19.446;2022-08-03T03:00:15;12.98;;;6.80;;
70970;SDS011;58632;51.718;19.446;2022-08-03T03:02:44;9.73;;;7.08;;
70970;SDS011;58632;51.718;19.446;2022-08-03T03:05:12;11.50;;;6.92;;
70970;SDS011;58632;51.718;19.446;2022-08-03T03:07:41;8.23;;;6.40;;
70970;SDS011;58632;51.718;19.446;2022-08-03T03:10:10;11.28;;;7.00;;
70970;SDS011;58632;51.718;19.446;2022-08-03T03:12:38;9.05;;;6.58;;
70970;SDS011;58632;51.718;19.446;2022-08-03T03:15:08;11.97;;;7.60;;
70970;SDS011;58632;51.718;19.446;2022-08-03T03:17:36;11.63;;;7.60;;
70970;SDS011;58632;51.718;19.446;2022-08-03T03:20:06;13.90;;;7.33;;
70970;SDS011;58632;51.718;19.446;2022-08-03T03:22:35;11.80;;;6.92;;
70970;SDS011;58632;51.718;19.446;2022-08-03T03:25:06;11.97;;;7.20;;
70970;SDS011;58632;51.718;19.446;2022-08-03T03:27:35;9.83;;;7.40;;
70970;SDS011;58632;51.718;19.446;2022-08-03T03:30:03;8.93;;;7.65;;
70970;SDS011;58632;51.718;19.446;2022-08-03T03:32:31;10.43;;;8.55;;
70970;SDS011;58632;51.718;19.446;2022-08-03T03:35:03;13.00;;;9.15;;
70970;SDS011;58632;51.718;19.446;2022-08-03T03:37:32;10.75;;;8.48;;
70970;SDS011;58632;51.718;19.446;2022-08-03T03:39:59;15.70;;;10.80;;
70970;SDS011;58632;51.718;19.446;2022-08-03T03:42:27;16.57;;;9.60;;
70970;SDS011;58632;51.718;19.446;2022-08-03T03:44:55;12.13;;;9.25;;
70970;SDS011;58632;51.718;19.446;2022-08-03T03:47:23;13.05;;;9.53;;
70970;SDS011;58632;51.718;19.446;2022-08-03T03:49:51;12.75;;;9.93;;
70970;SDS011;58632;51.718;19.446;2022-08-03T03:52:18;11.33;;;8.83;;
70970;SDS011;58632;51.718;19.446;2022-08-03T03:54:46;12.50;;;9.40;;
70970;SDS011;58632;51.718;19.446;2022-08-03T03:57:13;13.83;;;8.68;;
70970;SDS011;58632;51.718;19.446;2022-08-03T03:59:41;10.13;;;7.83;;
70970;SDS011;58632;51.718;19.446;2022-08-03T04:02:10;12.35;;;8.68;;
70970;SDS011;58632;51.718;19.446;2022-08-03T04:04:38;10.75;;;7.70;;
70970;SDS011;58632;51.718;19.446;2022-08-03T04:07:24;9.38;;;7.60;;
70970;SDS011;58632;51.718;19.446;2022-08-03T04:10:21;12.35;;;8.33;;
70970;SDS011;58632;51.718;19.446;2022-08-03T04:13:11;10.45;;;8.00;;
70970;SDS011;58632;51.718;19.446;2022-08-03T04:15:44;9.98;;;7.30;;
70970;SDS011;58632;51.718;19.446;2022-08-03T04:18:14;15.32;;;7.80;;
70970;SDS011;58632;51.718;19.446;2022-08-03T04:20:44;11.93;;;7.97;;
70970;SDS011;58632;51.718;19.446;2022-08-03T04:23:16;11.10;;;7.20;;
70970;SDS011;58632;51.718;19.446;2022-08-03T04:25:48;10.45;;;7.25;;
70970;SDS011;58632;51.718;19.446;2022-08-03T04:28:20;9.05;;;6.97;;
70970;SDS011;58632;51.718;19.446;2022-08-03T04:30:50;11.90;;;7.92;;
70970;SDS011;58632;51.718;19.446;2022-08-03T04:33:19;14.33;;;7.47;;
70970;SDS011;58632;51.718;19.446;2022-08-03T04:35:50;10.93;;;6.55;;
70970;SDS011;58632;51.718;19.446;2022-08-03T04:38:21;10.70;;;6.60;;
70970;SDS011;58632;51.718;19.446;2022-08-03T04:40:51;11.63;;;5.85;;
70970;SDS011;58632;51.718;19.446;2022-08-03T04:43:20;10.23;;;6.40;;
70970;SDS011;58632;51.718;19.446;2022-08-03T04:45:50;10.23;;;6.37;;
70970;SDS011;58632;51.718;19.446;2022-08-03T04:48:20;10.30;;;6.20;;
70970;SDS011;58632;51.718;19.446;2022-08-03T04:50:48;11.88;;;6.60;;
70970;SDS011;58632;51.718;19.446;2022-08-03T04:53:16;12.10;;;7.12;;
70970;SDS011;58632;51.718;19.446;2022-08-03T04:55:44;9.90;;;7.62;;
70970;SDS011;58632;51.718;19.446;2022-08-03T04:58:12;11.15;;;7.30;;
70970;SDS011;58632;51.718;19.446;2022-08-03T05:00:39;10.85;;;7.12;;
70970;SDS011;58632;51.718;19.446;2022-08-03T05:03:07;11.57;;;6.83;;
70970;SDS011;58632;51.718;19.446;2022-08-03T05:05:34;11.60;;;7.15;;
70970;SDS011;58632;51.718;19.446;2022-08-03T05:08:02;14.15;;;7.72;;
70970;SDS011;58632;51.718;19.446;2022-08-03T05:10:30;12.35;;;8.40;;
70970;SDS011;58632;51.718;19.446;2022-08-03T05:12:58;12.73;;;8.80;;
70970;SDS011;58632;51.718;19.446;2022-08-03T05:15:25;9.33;;;7.70;;
70970;SDS011;58632;51.718;19.446;2022-08-03T05:17:52;14.50;;;7.97;;
70970;SDS011;58632;51.718;19.446;2022-08-03T05:20:19;14.33;;;8.40;;
70970;SDS011;58632;51.718;19.446;2022-08-03T05:22:47;10.00;;;8.50;;
70970;SDS011;58632;51.718;19.446;2022-08-03T05:25:14;15.32;;;8.33;;
70970;SDS011;58632;51.718;19.446;2022-08-03T05:27:41;11.68;;;7.70;;
70970;SDS011;58632;51.718;19.446;2022-08-03T05:30:09;14.35;;;7.90;;
70970;SDS011;58632;51.718;19.446;2022-08-03T05:32:37;11.15;;;8.03;;
70970;SDS011;58632;51.718;19.446;2022-08-03T05:35:04;12.15;;;8.00;;
70970;SDS011;58632;51.718;19.446;2022-08-03T05:37:33;12.95;;;8.30;;
70970;SDS011;58632;51.718;19.446;2022-08-03T05:40:01;17.82;;;8.30;;
70970;SDS011;58632;51.718;19.446;2022-08-03T05:42:29;12.25;;;8.43;;
70970;SDS011;58632;51.718;19.446;2022-08-03T05:44:57;10.68;;;8.43;;
70970;SDS011;58632;51.718;19.446;2022-08-03T05:47:24;13.62;;;8.13;;
70970;SDS011;58632;51.718;19.446;2022-08-03T05:49:51;11.68;;;7.78;;
70970;SDS011;58632;51.718;19.446;2022-08-03T05:52:18;13.95;;;8.13;;
70970;SDS011;58632;51.718;19.446;2022-08-03T05:54:45;12.68;;;8.00;;
70970;SDS011;58632;51.718;19.446;2022-08-03T05:57:12;13.53;;;7.90;;
70970;SDS011;58632;51.718;19.446;2022-08-03T05:59:41;10.18;;;8.08;;
70970;SDS011;58632;51.718;19.446;2022-08-03T06:02:09;16.12;;;7.47;;
70970;SDS011;58632;51.718;19.446;2022-08-03T06:04:36;11.63;;;7.75;;
70970;SDS011;58632;51.718;19.446;2022-08-03T06:07:04;11.93;;;7.40;;
70970;SDS011;58632;51.718;19.446;2022-08-03T06:09:31;9.25;;;6.55;;
70970;SDS011;58632;51.718;19.446;2022-08-03T06:11:58;8.55;;;6.33;;
70970;SDS011;58632;51.718;19.446;2022-08-03T06:14:25;11.28;;;7.17;;
70970;SDS011;58632;51.718;19.446;2022-08-03T06:16:54;12.28;;;7.17;;
70970;SDS011;58632;51.718;19.446;2022-08-03T06:19:22;10.65;;;6.45;;
70970;SDS011;58632;51.718;19.446;2022-08-03T06:21:50;9.53;;;6.40;;
70970;SDS011;58632;51.718;19.446;2022-08-03T06:24:17;8.20;;;6.12;;
70970;SDS011;58632;51.718;19.446;2022-08-03T06:26:45;16.20;;;6.40;;
70970;SDS011;58632;51.718;19.446;2022-08-03T06:29:12;10.05;;;6.33;;
70970;SDS011;58632;51.718;19.446;2022-08-03T06:31:40;11.60;;;5.95;;
70970;SDS011;58632;51.718;19.446;2022-08-03T06:34:07;10.43;;;5.87;;
70970;SDS011;58632;51.718;19.446;2022-08-03T06:36:35;9.75;;;5.95;;
70970;SDS011;58632;51.718;19.446;2022-08-03T06:39:02;9.80;;;5.60;;
70970;SDS011;58632;51.718;19.446;2022-08-03T06:41:30;9.13;;;5.58;;
70970;SDS011;58632;51.718;19.446;2022-08-03T06:43:58;8.03;;;5.80;;
70970;SDS011;58632;51.718;19.446;2022-08-03T06:46:25;13.22;;;6.22;;
70970;SDS011;58632;51.718;19.446;2022-08-03T06:48:52;13.55;;;5.70;;
70970;SDS011;58632;51.718;19.446;2022-08-03T06:51:21;7.90;;;5.15;;
70970;SDS011;58632;51.718;19.446;2022-08-03T06:53:49;10.43;;;5.45;;
70970;SDS011;58632;51.718;19.446;2022-08-03T06:56:16;10.15;;;4.92;;
70970;SDS011;58632;51.718;19.446;2022-08-03T06:58:43;7.15;;;4.58;;
70970;SDS011;58632;51.718;19.446;2022-08-03T07:01:12;7.55;;;4.00;;
70970;SDS011;58632;51.718;19.446;2022-08-03T07:03:39;6.80;;;4.17;;
70970;SDS011;58632;51.718;19.446;2022-08-03T07:06:06;8.65;;;4.03;;
70970;SDS011;58632;51.718;19.446;2022-08-03T07:08:34;6.50;;;3.75;;
70970;SDS011;58632;51.718;19.446;2022-08-03T07:11:02;6.05;;;3.85;;
70970;SDS011;58632;51.718;19.446;2022-08-03T07:13:29;5.78;;;3.37;;
70970;SDS011;58632;51.718;19.446;2022-08-03T07:15:56;7.50;;;3.30;;
70970;SDS011;58632;51.718;19.446;2022-08-03T07:18:24;5.15;;;3.37;;
70970;SDS011;58632;51.718;19.446;2022-08-03T07:20:51;5.75;;;3.70;;
70970;SDS011;58632;51.718;19.446;2022-08-03T07:23:18;4.40;;;3.00;;
70970;SDS011;58632;51.718;19.446;2022-08-03T07:25:46;4.85;;;3.08;;
70970;SDS011;58632;51.718;19.446;2022-08-03T07:28:13;6.72;;;3.70;;
70970;SDS011;58632;51.718;19.446;2022-08-03T07:30:40;5.85;;;3.35;;
70970;SDS011;58632;51.718;19.446;2022-08-03T07:33:08;5.12;;;3.17;;
70970;SDS011;58632;51.718;19.446;2022-08-03T07:35:35;6.28;;;3.40;;
70970;SDS011;58632;51.718;19.446;2022-08-03T07:38:03;6.62;;;3.05;;
70970;SDS011;58632;51.718;19.446;2022-08-03T07:40:30;4.92;;;2.80;;
70970;SDS011;58632;51.718;19.446;2022-08-03T07:42:58;5.03;;;2.98;;
70970;SDS011;58632;51.718;19.446;2022-08-03T07:45:28;3.92;;;2.72;;
70970;SDS011;58632;51.718;19.446;2022-08-03T07:47:57;4.62;;;3.00;;
70970;SDS011;58632;51.718;19.446;2022-08-03T07:50:25;6.90;;;2.47;;
70970;SDS011;58632;51.718;19.446;2022-08-03T07:52:53;3.47;;;2.12;;
70970;SDS011;58632;51.718;19.446;2022-08-03T07:55:22;4.25;;;2.40;;
70970;SDS011;58632;51.718;19.446;2022-08-03T07:58:01;5.58;;;2.50;;
70970;SDS011;58632;51.718;19.446;2022-08-03T08:00:37;5.00;;;2.50;;
70970;SDS011;58632;51.718;19.446;2022-08-03T08:03:05;6.12;;;2.40;;
70970;SDS011;58632;51.718;19.446;2022-08-03T08:05:32;4.72;;;2.20;;
70970;SDS011;58632;51.718;19.446;2022-08-03T08:08:00;3.55;;;2.40;;
70970;SDS011;58632;51.718;19.446;2022-08-03T08:10:28;5.33;;;2.98;;
70970;SDS011;58632;51.718;19.446;2022-08-03T08:12:56;6.37;;;2.40;;
70970;SDS011;58632;51.718;19.446;2022-08-03T08:15:23;4.85;;;2.55;;
70970;SDS011;58632;51.718;19.446;2022-08-03T08:17:52;5.58;;;2.75;;
70970;SDS011;58632;51.718;19.446;2022-08-03T08:20:27;4.12;;;2.58;;
70970;SDS011;58632;51.718;19.446;2022-08-03T08:22:58;4.87;;;2.47;;
70970;SDS011;58632;51.718;19.446;2022-08-03T08:25:25;7.05;;;2.58;;
70970;SDS011;58632;51.718;19.446;2022-08-03T08:27:53;8.13;;;2.58;;
70970;SDS011;58632;51.718;19.446;2022-08-03T08:30:21;4.83;;;2.85;;
70970;SDS011;58632;51.718;19.446;2022-08-03T08:32:50;5.47;;;2.83;;
70970;SDS011;58632;51.718;19.446;2022-08-03T08:35:17;4.42;;;2.60;;
70970;SDS011;58632;51.718;19.446;2022-08-03T08:37:45;5.47;;;2.83;;
70970;SDS011;58632;51.718;19.446;2022-08-03T08:40:13;6.03;;;2.92;;
70970;SDS011;58632;51.718;19.446;2022-08-03T08:42:40;3.08;;;2.55;;
70970;SDS011;58632;51.718;19.446;2022-08-03T08:45:11;3.00;;;2.55;;
70970;SDS011;58632;51.718;19.446;2022-08-03T08:47:43;8.03;;;2.90;;
70970;SDS011;58632;51.718;19.446;2022-08-03T08:50:12;5.25;;;2.90;;
70970;SDS011;58632;51.718;19.446;2022-08-03T08:52:45;9.23;;;3.22;;
70970;SDS011;58632;51.718;19.446;2022-08-03T08:55:18;5.10;;;3.10;;
70970;SDS011;58632;51.718;19.446;2022-08-03T08:57:49;5.12;;;2.98;;
70970;SDS011;58632;51.718;19.446;2022-08-03T09:00:21;5.05;;;3.20;;
70970;SDS011;58632;51.718;19.446;2022-08-03T09:02:48;5.50;;;2.80;;
70970;SDS011;58632;51.718;19.446;2022-08-03T09:05:16;4.78;;;2.95;;
70970;SDS011;58632;51.718;19.446;2022-08-03T09:07:46;4.70;;;3.00;;
70970;SDS011;58632;51.718;19.446;2022-08-03T09:10:15;4.42;;;3.20;;
70970;SDS011;58632;51.718;19.446;2022-08-03T09:12:48;5.87;;;3.30;;
70970;SDS011;58632;51.718;19.446;2022-08-03T09:15:20;4.72;;;2.85;;
70970;SDS011;58632;51.718;19.446;2022-08-03T09:18:00;6.53;;;3.33;;
70970;SDS011;58632;51.718;19.446;2022-08-03T09:20:30;7.17;;;3.20;;
70970;SDS011;58632;51.718;19.446;2022-08-03T09:23:01;4.42;;;3.10;;
70970;SDS011;58632;51.718;19.446;2022-08-03T09:25:31;4.47;;;3.25;;
70970;SDS011;58632;51.718;19.446;2022-08-03T09:30:40;7.90;;;3.70;;
70970;SDS011;58632;51.718;19.446;2022-08-03T09:33:11;5.83;;;3.42;;
70970;SDS011;58632;51.718;19.446;2022-08-03T09:35:45;6.40;;;3.25;;
70970;SDS011;58632;51.718;19.446;2022-08-03T09:38:16;7.90;;;3.25;;
70970;SDS011;58632;51.718;19.446;2022-08-03T09:40:54;19.73;;;4.45;;
70970;SDS011;58632;51.718;19.446;2022-08-03T09:43:23;6.65;;;3.27;;
70970;SDS011;58632;51.718;19.446;2022-08-03T09:45:52;5.05;;;3.42;;
70970;SDS011;58632;51.718;19.446;2022-08-03T09:48:32;5.42;;;2.98;;
70970;SDS011;58632;51.718;19.446;2022-08-03T09:51:02;4.97;;;2.67;;
70970;SDS011;58632;51.718;19.446;2022-08-03T09:53:30;7.15;;;3.52;;
70970;SDS011;58632;51.718;19.446;2022-08-03T09:56:01;4.42;;;2.90;;
70970;SDS011;58632;51.718;19.446;2022-08-03T09:58:29;4.50;;;3.20;;
70970;SDS011;58632;51.718;19.446;2022-08-03T10:01:02;5.20;;;3.22;;
70970;SDS011;58632;51.718;19.446;2022-08-03T10:03:33;6.47;;;3.25;;
70970;SDS011;58632;51.718;19.446;2022-08-03T10:06:15;6.45;;;3.50;;
70970;SDS011;58632;51.718;19.446;2022-08-03T10:08:45;5.97;;;3.45;;
70970;SDS011;58632;51.718;19.446;2022-08-03T10:11:20;4.42;;;3.05;;
70970;SDS011;58632;51.718;19.446;2022-08-03T10:13:56;5.85;;;3.22;;
70970;SDS011;58632;51.718;19.446;2022-08-03T10:16:24;5.12;;;3.15;;
70970;SDS011;58632;51.718;19.446;2022-08-03T10:18:52;6.87;;;3.15;;
70970;SDS011;58632;51.718;19.446;2022-08-03T10:21:21;7.17;;;3.50;;
70970;SDS011;58632;51.718;19.446;2022-08-03T10:23:49;3.77;;;3.30;;
70970;SDS011;58632;51.718;19.446;2022-08-03T10:26:20;5.85;;;3.30;;
70970;SDS011;58632;51.718;19.446;2022-08-03T10:28:52;4.40;;;3.20;;
70970;SDS011;58632;51.718;19.446;2022-08-03T10:31:21;5.90;;;2.98;;
70970;SDS011;58632;51.718;19.446;2022-08-03T10:33:50;7.28;;;3.10;;
70970;SDS011;58632;51.718;19.446;2022-08-03T10:36:22;4.95;;;3.02;;
70970;SDS011;58632;51.718;19.446;2022-08-03T10:38:52;5.20;;;2.95;;
70970;SDS011;58632;51.718;19.446;2022-08-03T10:41:23;5.17;;;3.08;;
70970;SDS011;58632;51.718;19.446;2022-08-03T10:43:58;5.00;;;3.45;;
70970;SDS011;58632;51.718;19.446;2022-08-03T10:46:37;4.45;;;3.40;;
70970;SDS011;58632;51.718;19.446;2022-08-03T10:49:05;4.12;;;3.05;;
70970;SDS011;58632;51.718;19.446;2022-08-03T10:51:34;7.10;;;3.47;;
70970;SDS011;58632;51.718;19.446;2022-08-03T10:54:02;4.78;;;3.10;;
70970;SDS011;58632;51.718;19.446;2022-08-03T11:02:17;3.30;;;3.00;;
70970;SDS011;58632;51.718;19.446;2022-08-03T11:04:44;4.60;;;3.12;;
70970;SDS011;58632;51.718;19.446;2022-08-03T11:09:50;5.08;;;3.25;;
70970;SDS011;58632;51.718;19.446;2022-08-03T11:12:21;5.75;;;3.02;;
70970;SDS011;58632;51.718;19.446;2022-08-03T11:14:52;6.70;;;3.12;;
70970;SDS011;58632;51.718;19.446;2022-08-03T11:17:21;3.25;;;2.90;;
70970;SDS011;58632;51.718;19.446;2022-08-03T11:19:50;3.75;;;2.80;;
70970;SDS011;58632;51.718;19.446;2022-08-03T11:22:19;7.72;;;4.45;;
70970;SDS011;58632;51.718;19.446;2022-08-03T11:27:24;4.40;;;3.27;;
70970;SDS011;58632;51.718;19.446;2022-08-03T11:30:07;3.55;;;3.10;;
70970;SDS011;58632;51.718;19.446;2022-08-03T11:38:03;4.85;;;3.55;;
70970;SDS011;58632;51.718;19.446;2022-08-03T11:40:39;7.80;;;3.37;;
70970;SDS011;58632;51.718;19.446;2022-08-03T11:46:07;3.83;;;3.12;;
70970;SDS011;58632;51.718;19.446;2022-08-03T11:48:44;4.95;;;3.87;;
70970;SDS011;58632;51.718;19.446;2022-08-03T11:53:52;5.30;;;3.33;;
70970;SDS011;58632;51.718;19.446;2022-08-03T11:56:26;6.60;;;3.77;;
70970;SDS011;58632;51.718;19.446;2022-08-03T11:58:57;5.42;;;3.65;;
70970;SDS011;58632;51.718;19.446;2022-08-03T12:01:25;5.58;;;3.50;;
70970;SDS011;58632;51.718;19.446;2022-08-03T12:03:52;6.03;;;3.65;;
70970;SDS011;58632;51.718;19.446;2022-08-03T12:06:20;4.55;;;3.42;;
70970;SDS011;58632;51.718;19.446;2022-08-03T12:08:47;3.80;;;3.20;;
70970;SDS011;58632;51.718;19.446;2022-08-03T12:11:14;4.42;;;3.50;;
70970;SDS011;58632;51.718;19.446;2022-08-03T12:13:44;4.78;;;3.40;;
70970;SDS011;58632;51.718;19.446;2022-08-03T12:16:17;7.67;;;3.45;;
70970;SDS011;58632;51.718;19.446;2022-08-03T12:18:56;5.10;;;3.37;;
70970;SDS011;58632;51.718;19.446;2022-08-03T12:21:30;5.97;;;3.67;;
70970;SDS011;58632;51.718;19.446;2022-08-03T12:23:58;3.98;;;3.33;;
70970;SDS011;58632;51.718;19.446;2022-08-03T12:26:30;4.80;;;3.50;;
70970;SDS011;58632;51.718;19.446;2022-08-03T12:29:17;4.80;;;3.20;;
70970;SDS011;58632;51.718;19.446;2022-08-03T12:31:46;6.15;;;3.45;;
70970;SDS011;58632;51.718;19.446;2022-08-03T12:34:14;4.67;;;3.47;;
70970;SDS011;58632;51.718;19.446;2022-08-03T12:36:49;4.65;;;3.08;;
70970;SDS011;58632;51.718;19.446;2022-08-03T12:39:21;4.12;;;3.72;;
70970;SDS011;58632;51.718;19.446;2022-08-03T12:41:55;4.22;;;3.70;;
70970;SDS011;58632;51.718;19.446;2022-08-03T12:44:30;4.35;;;3.62;;
70970;SDS011;58632;51.718;19.446;2022-08-03T12:47:00;3.87;;;3.50;;
70970;SDS011;58632;51.718;19.446;2022-08-03T12:49:43;7.10;;;3.83;;
70970;SDS011;58632;51.718;19.446;2022-08-03T12:52:16;4.00;;;3.60;;
70970;SDS011;58632;51.718;19.446;2022-08-03T12:54:56;4.58;;;3.33;;
70970;SDS011;58632;51.718;19.446;2022-08-03T12:57:48;4.87;;;4.03;;
70970;SDS011;58632;51.718;19.446;2022-08-03T13:00:12;4.50;;;3.67;;
70970;SDS011;58632;51.718;19.446;2022-08-03T13:02:42;4.25;;;3.80;;
70970;SDS011;58632;51.718;19.446;2022-08-03T13:05:11;8.25;;;3.87;;
70970;SDS011;58632;51.718;19.446;2022-08-03T13:07:41;8.48;;;3.95;;
70970;SDS011;58632;51.718;19.446;2022-08-03T13:10:11;4.30;;;3.50;;
70970;SDS011;58632;51.718;19.446;2022-08-03T13:12:46;4.40;;;3.52;;
70970;SDS011;58632;51.718;19.446;2022-08-03T13:15:16;5.20;;;3.72;;
70970;SDS011;58632;51.718;19.446;2022-08-03T13:17:43;3.92;;;3.52;;
70970;SDS011;58632;51.718;19.446;2022-08-03T13:20:11;3.85;;;3.45;;
70970;SDS011;58632;51.718;19.446;2022-08-03T13:22:38;9.58;;;3.85;;
70970;SDS011;58632;51.718;19.446;2022-08-03T13:25:05;6.67;;;3.67;;
70970;SDS011;58632;51.718;19.446;2022-08-03T13:27:34;4.20;;;3.80;;
70970;SDS011;58632;51.718;19.446;2022-08-03T13:30:01;4.25;;;3.85;;
70970;SDS011;58632;51.718;19.446;2022-08-03T13:32:30;5.15;;;4.08;;
70970;SDS011;58632;51.718;19.446;2022-08-03T13:34:59;5.40;;;3.85;;
70970;SDS011;58632;51.718;19.446;2022-08-03T13:37:29;5.03;;;3.62;;
70970;SDS011;58632;51.718;19.446;2022-08-03T13:40:00;6.03;;;4.00;;
70970;SDS011;58632;51.718;19.446;2022-08-03T13:42:31;5.12;;;3.60;;
70970;SDS011;58632;51.718;19.446;2022-08-03T13:45:00;4.10;;;3.70;;
70970;SDS011;58632;51.718;19.446;2022-08-03T13:47:30;4.42;;;3.62;;
70970;SDS011;58632;51.718;19.446;2022-08-03T13:49:57;4.65;;;3.75;;
70970;SDS011;58632;51.718;19.446;2022-08-03T13:52:25;6.85;;;3.58;;
70970;SDS011;58632;51.718;19.446;2022-08-03T13:54:53;6.25;;;3.90;;
70970;SDS011;58632;51.718;19.446;2022-08-03T13:57:21;6.83;;;4.20;;
70970;SDS011;58632;51.718;19.446;2022-08-03T13:59:48;5.00;;;3.75;;
70970;SDS011;58632;51.718;19.446;2022-08-03T14:02:16;4.15;;;3.67;;
70970;SDS011;58632;51.718;19.446;2022-08-03T14:04:43;5.00;;;4.45;;
70970;SDS011;58632;51.718;19.446;2022-08-03T14:07:10;5.00;;;4.50;;
70970;SDS011;58632;51.718;19.446;2022-08-03T14:09:39;5.10;;;4.47;;
70970;SDS011;58632;51.718;19.446;2022-08-03T14:12:07;6.17;;;4.00;;
70970;SDS011;58632;51.718;19.446;2022-08-03T14:14:35;4.42;;;3.72;;
70970;SDS011;58632;51.718;19.446;2022-08-03T14:17:02;4.90;;;3.95;;
70970;SDS011;58632;51.718;19.446;2022-08-03T14:19:30;5.85;;;4.30;;
70970;SDS011;58632;51.718;19.446;2022-08-03T14:21:57;6.40;;;3.87;;
70970;SDS011;58632;51.718;19.446;2022-08-03T14:24:24;6.20;;;4.17;;
70970;SDS011;58632;51.718;19.446;2022-08-03T14:26:52;6.78;;;4.30;;
70970;SDS011;58632;51.718;19.446;2022-08-03T14:29:19;5.28;;;4.08;;
70970;SDS011;58632;51.718;19.446;2022-08-03T14:31:46;6.70;;;4.33;;
70970;SDS011;58632;51.718;19.446;2022-08-03T14:34:13;6.40;;;4.35;;
70970;SDS011;58632;51.718;19.446;2022-08-03T14:36:41;5.65;;;4.30;;
70970;SDS011;58632;51.718;19.446;2022-08-03T14:39:08;5.17;;;4.28;;
70970;SDS011;58632;51.718;19.446;2022-08-03T14:41:36;4.80;;;3.83;;
70970;SDS011;58632;51.718;19.446;2022-08-03T14:44:03;4.28;;;3.60;;
70970;SDS011;58632;51.718;19.446;2022-08-03T14:46:31;4.33;;;3.90;;
70970;SDS011;58632;51.718;19.446;2022-08-03T14:48:58;4.25;;;3.77;;
70970;SDS011;58632;51.718;19.446;2022-08-03T14:51:25;4.22;;;3.77;;
70970;SDS011;58632;51.718;19.446;2022-08-03T14:53:52;4.25;;;3.85;;
70970;SDS011;58632;51.718;19.446;2022-08-03T14:56:20;4.90;;;4.10;;
70970;SDS011;58632;51.718;19.446;2022-08-03T14:58:48;4.37;;;3.70;;
70970;SDS011;58632;51.718;19.446;2022-08-03T15:01:16;4.45;;;3.90;;
70970;SDS011;58632;51.718;19.446;2022-08-03T15:03:43;5.47;;;4.15;;
70970;SDS011;58632;51.718;19.446;2022-08-03T15:06:12;4.17;;;3.75;;
70970;SDS011;58632;51.718;19.446;2022-08-03T15:08:40;5.22;;;4.30;;
70970;SDS011;58632;51.718;19.446;2022-08-03T15:11:07;5.92;;;3.90;;
70970;SDS011;58632;51.718;19.446;2022-08-03T15:13:35;6.35;;;4.33;;
70970;SDS011;58632;51.718;19.446;2022-08-03T15:16:02;4.83;;;4.37;;
70970;SDS011;58632;51.718;19.446;2022-08-03T15:18:31;6.45;;;4.40;;
70970;SDS011;58632;51.718;19.446;2022-08-03T15:20:58;5.12;;;3.98;;
70970;SDS011;58632;51.718;19.446;2022-08-03T15:23:26;5.03;;;4.50;;
70970;SDS011;58632;51.718;19.446;2022-08-03T15:25:53;8.73;;;4.03;;